sensor_id;sensor_type;location;lat;lon;timestamp;P1;durP1;ratioP1;P2;durP2;ratioP2
36449;SDS011;22475;51.390;7.180;2023-12-20T00:02:08;5.75;;;4.82;;
36449;SDS011;22475;51.390;7.180;2023-12-20T00:04:35;5.30;;;4.80;;
36449;SDS011;22475;51.390;7.180;2023-12-20T00:07:02;6.10;;;5.50;;
36449;SDS011;22475;51.390;7.180;2023-12-20T00:09:30;8.68;;;5.72;;
36449;SDS011;22475;51.390;7.180;2023-12-20T00:11:56;15.13;;;5.95;;
36449;SDS011;22475;51.390;7.180;2023-12-20T00:14:23;7.63;;;6.25;;
36449;SDS011;22475;51.390;7.180;2023-12-20T00:16:50;7.95;;;5.03;;
36449;SDS011;22475;51.390;7.180;2023-12-20T00:19:17;11.27;;;7.18;;
36449;SDS011;22475;51.390;7.180;2023-12-20T00:21:43;11.23;;;7.90;;
36449;SDS011;22475;51.390;7.180;2023-12-20T00:24:10;9.40;;;6.88;;
36449;SDS011;22475;51.390;7.180;2023-12-20T00:26:38;11.07;;;7.07;;
36449;SDS011;22475;51.390;7.180;2023-12-20T00:29:05;8.93;;;5.75;;
36449;SDS011;22475;51.390;7.180;2023-12-20T00:31:32;12.98;;;7.78;;
36449;SDS011;22475;51.390;7.180;2023-12-20T00:33:58;8.25;;;6.90;;
36449;SDS011;22475;51.390;7.180;2023-12-20T00:36:25;13.57;;;7.82;;
36449;SDS011;22475;51.390;7.180;2023-12-20T00:38:52;8.45;;;7.05;;
36449;SDS011;22475;51.390;7.180;2023-12-20T00:41:19;15.38;;;7.53;;
36449;SDS011;22475;51.390;7.180;2023-12-20T00:43:47;13.27;;;5.78;;
36449;SDS011;22475;51.390;7.180;2023-12-20T00:46:14;16.48;;;6.78;;
36449;SDS011;22475;51.390;7.180;2023-12-20T00:48:40;9.93;;;7.10;;
36449;SDS011;22475;51.390;7.180;2023-12-20T00:51:10;4.03;;;3.50;;
36449;SDS011;22475;51.390;7.180;2023-12-20T00:53:37;14.77;;;7.40;;
36449;SDS011;22475;51.390;7.180;2023-12-20T00:56:04;13.80;;;6.40;;
36449;SDS011;22475;51.390;7.180;2023-12-20T00:58:31;7.47;;;5.07;;
36449;SDS011;22475;51.390;7.180;2023-12-20T01:00:59;8.85;;;5.68;;
36449;SDS011;22475;51.390;7.180;2023-12-20T01:03:25;12.95;;;6.15;;
36449;SDS011;22475;51.390;7.180;2023-12-20T01:05:52;14.00;;;5.85;;
36449;SDS011;22475;51.390;7.180;2023-12-20T01:08:19;9.65;;;5.90;;
36449;SDS011;22475;51.390;7.180;2023-12-20T01:10:45;8.63;;;5.50;;
36449;SDS011;22475;51.390;7.180;2023-12-20T01:13:12;6.38;;;5.70;;
36449;SDS011;22475;51.390;7.180;2023-12-20T01:15:39;9.82;;;5.75;;
36449;SDS011;22475;51.390;7.180;2023-12-20T01:18:08;14.38;;;6.35;;
36449;SDS011;22475;51.390;7.180;2023-12-20T01:20:34;6.82;;;4.25;;
36449;SDS011;22475;51.390;7.180;2023-12-20T01:23:01;11.68;;;5.43;;
36449;SDS011;22475;51.390;7.180;2023-12-20T01:25:28;7.72;;;5.82;;
36449;SDS011;22475;51.390;7.180;2023-12-20T01:27:54;11.13;;;5.88;;
36449;SDS011;22475;51.390;7.180;2023-12-20T01:30:21;5.47;;;3.33;;
36449;SDS011;22475;51.390;7.180;2023-12-20T01:32:49;15.68;;;5.28;;
36449;SDS011;22475;51.390;7.180;2023-12-20T01:35:17;6.72;;;4.90;;
36449;SDS011;22475;51.390;7.180;2023-12-20T01:37:44;12.48;;;4.38;;
36449;SDS011;22475;51.390;7.180;2023-12-20T01:40:10;5.70;;;4.15;;
36449;SDS011;22475;51.390;7.180;2023-12-20T01:42:37;7.97;;;3.70;;
36449;SDS011;22475;51.390;7.180;2023-12-20T01:45:04;13.75;;;4.55;;
36449;SDS011;22475;51.390;7.180;2023-12-20T01:47:32;10.57;;;4.85;;
36449;SDS011;22475;51.390;7.180;2023-12-20T01:49:59;7.78;;;4.03;;
36449;SDS011;22475;51.390;7.180;2023-12-20T01:52:30;11.15;;;4.20;;
36449;SDS011;22475;51.390;7.180;2023-12-20T01:54:58;8.23;;;3.87;;
36449;SDS011;22475;51.390;7.180;2023-12-20T01:57:27;14.80;;;4.15;;
36449;SDS011;22475;51.390;7.180;2023-12-20T01:59:55;5.57;;;4.20;;
36449;SDS011;22475;51.390;7.180;2023-12-20T02:02:22;7.32;;;4.03;;
36449;SDS011;22475;51.390;7.180;2023-12-20T02:04:49;12.00;;;4.93;;
36449;SDS011;22475;51.390;7.180;2023-12-20T02:07:16;18.13;;;4.85;;
36449;SDS011;22475;51.390;7.180;2023-12-20T02:09:45;6.88;;;4.10;;
36449;SDS011;22475;51.390;7.180;2023-12-20T02:12:12;7.22;;;3.95;;
36449;SDS011;22475;51.390;7.180;2023-12-20T02:14:39;11.13;;;4.72;;
36449;SDS011;22475;51.390;7.180;2023-12-20T02:17:06;5.22;;;4.18;;
36449;SDS011;22475;51.390;7.180;2023-12-20T02:19:33;12.57;;;5.47;;
36449;SDS011;22475;51.390;7.180;2023-12-20T02:22:08;9.77;;;4.53;;
36449;SDS011;22475;51.390;7.180;2023-12-20T02:24:35;11.45;;;4.25;;
36449;SDS011;22475;51.390;7.180;2023-12-20T02:27:02;13.10;;;5.35;;
36449;SDS011;22475;51.390;7.180;2023-12-20T02:29:29;18.88;;;3.90;;
36449;SDS011;22475;51.390;7.180;2023-12-20T02:31:57;8.40;;;3.50;;
36449;SDS011;22475;51.390;7.180;2023-12-20T02:34:23;15.65;;;4.00;;
36449;SDS011;22475;51.390;7.180;2023-12-20T02:36:50;20.33;;;5.28;;
36449;SDS011;22475;51.390;7.180;2023-12-20T02:39:19;14.48;;;4.05;;
36449;SDS011;22475;51.390;7.180;2023-12-20T02:41:45;3.42;;;2.20;;
36449;SDS011;22475;51.390;7.180;2023-12-20T02:44:12;2.72;;;2.15;;
36449;SDS011;22475;51.390;7.180;2023-12-20T02:46:39;7.40;;;3.50;;
36449;SDS011;22475;51.390;7.180;2023-12-20T02:49:06;13.90;;;2.83;;
36449;SDS011;22475;51.390;7.180;2023-12-20T02:51:33;3.72;;;2.63;;
36449;SDS011;22475;51.390;7.180;2023-12-20T02:54:03;11.07;;;3.08;;
36449;SDS011;22475;51.390;7.180;2023-12-20T02:56:31;9.82;;;3.33;;
36449;SDS011;22475;51.390;7.180;2023-12-20T02:58:58;8.52;;;2.72;;
36449;SDS011;22475;51.390;7.180;2023-12-20T03:01:25;10.32;;;3.17;;
36449;SDS011;22475;51.390;7.180;2023-12-20T03:03:52;10.10;;;3.75;;
36449;SDS011;22475;51.390;7.180;2023-12-20T03:06:19;11.68;;;3.33;;
36449;SDS011;22475;51.390;7.180;2023-12-20T03:08:46;18.17;;;3.15;;
36449;SDS011;22475;51.390;7.180;2023-12-20T03:11:12;10.27;;;3.55;;
36449;SDS011;22475;51.390;7.180;2023-12-20T03:13:40;6.45;;;2.65;;
36449;SDS011;22475;51.390;7.180;2023-12-20T03:16:08;12.68;;;3.00;;
36449;SDS011;22475;51.390;7.180;2023-12-20T03:18:35;9.50;;;2.92;;
36449;SDS011;22475;51.390;7.180;2023-12-20T03:21:02;16.10;;;4.18;;
36449;SDS011;22475;51.390;7.180;2023-12-20T03:23:29;8.63;;;3.13;;
36449;SDS011;22475;51.390;7.180;2023-12-20T03:25:57;12.35;;;3.20;;
36449;SDS011;22475;51.390;7.180;2023-12-20T03:28:24;8.48;;;2.65;;
36449;SDS011;22475;51.390;7.180;2023-12-20T03:30:52;15.13;;;3.05;;
36449;SDS011;22475;51.390;7.180;2023-12-20T03:33:19;4.78;;;2.42;;
36449;SDS011;22475;51.390;7.180;2023-12-20T03:35:46;12.98;;;3.42;;
36449;SDS011;22475;51.390;7.180;2023-12-20T03:38:12;7.15;;;2.53;;
36449;SDS011;22475;51.390;7.180;2023-12-20T03:40:39;13.68;;;3.38;;
36449;SDS011;22475;51.390;7.180;2023-12-20T03:43:06;13.25;;;3.03;;
36449;SDS011;22475;51.390;7.180;2023-12-20T03:45:33;5.15;;;1.98;;
36449;SDS011;22475;51.390;7.180;2023-12-20T03:48:01;5.50;;;3.42;;
36449;SDS011;22475;51.390;7.180;2023-12-20T03:50:28;21.75;;;4.40;;
36449;SDS011;22475;51.390;7.180;2023-12-20T03:52:55;9.18;;;3.60;;
36449;SDS011;22475;51.390;7.180;2023-12-20T03:55:22;15.70;;;5.18;;
36449;SDS011;22475;51.390;7.180;2023-12-20T03:57:48;7.32;;;1.75;;
36449;SDS011;22475;51.390;7.180;2023-12-20T04:00:15;12.60;;;4.35;;
36449;SDS011;22475;51.390;7.180;2023-12-20T04:02:42;15.05;;;4.78;;
36449;SDS011;22475;51.390;7.180;2023-12-20T04:05:11;19.90;;;4.28;;
36449;SDS011;22475;51.390;7.180;2023-12-20T04:07:38;17.85;;;5.68;;
36449;SDS011;22475;51.390;7.180;2023-12-20T04:10:05;11.07;;;4.75;;
36449;SDS011;22475;51.390;7.180;2023-12-20T04:12:32;7.88;;;3.78;;
36449;SDS011;22475;51.390;7.180;2023-12-20T04:14:59;17.60;;;4.90;;
36449;SDS011;22475;51.390;7.180;2023-12-20T04:17:25;19.05;;;3.67;;
36449;SDS011;22475;51.390;7.180;2023-12-20T04:19:52;15.43;;;5.57;;
36449;SDS011;22475;51.390;7.180;2023-12-20T04:22:20;7.05;;;4.00;;
36449;SDS011;22475;51.390;7.180;2023-12-20T04:24:47;2.47;;;1.67;;
36449;SDS011;22475;51.390;7.180;2023-12-20T04:27:14;18.55;;;4.47;;
36449;SDS011;22475;51.390;7.180;2023-12-20T04:29:40;18.70;;;4.22;;
36449;SDS011;22475;51.390;7.180;2023-12-20T04:32:07;10.75;;;3.85;;
36449;SDS011;22475;51.390;7.180;2023-12-20T04:34:34;9.48;;;3.42;;
36449;SDS011;22475;51.390;7.180;2023-12-20T04:37:01;16.48;;;4.75;;
36449;SDS011;22475;51.390;7.180;2023-12-20T04:39:29;16.75;;;3.33;;
36449;SDS011;22475;51.390;7.180;2023-12-20T04:41:56;14.35;;;5.07;;
36449;SDS011;22475;51.390;7.180;2023-12-20T04:44:22;8.50;;;3.17;;
36449;SDS011;22475;51.390;7.180;2023-12-20T04:46:49;14.38;;;4.43;;
36449;SDS011;22475;51.390;7.180;2023-12-20T04:49:16;18.98;;;3.63;;
36449;SDS011;22475;51.390;7.180;2023-12-20T04:51:43;14.82;;;3.53;;
36449;SDS011;22475;51.390;7.180;2023-12-20T04:54:09;8.77;;;3.40;;
36449;SDS011;22475;51.390;7.180;2023-12-20T04:56:38;6.40;;;3.60;;
36449;SDS011;22475;51.390;7.180;2023-12-20T04:59:04;8.50;;;2.67;;
36449;SDS011;22475;51.390;7.180;2023-12-20T05:01:31;18.83;;;3.33;;
36449;SDS011;22475;51.390;7.180;2023-12-20T05:03:58;13.32;;;2.95;;
36449;SDS011;22475;51.390;7.180;2023-12-20T05:06:25;12.68;;;4.20;;
36449;SDS011;22475;51.390;7.180;2023-12-20T05:08:52;5.00;;;2.08;;
36449;SDS011;22475;51.390;7.180;2023-12-20T05:11:19;9.88;;;3.45;;
36449;SDS011;22475;51.390;7.180;2023-12-20T05:13:47;10.52;;;3.58;;
36449;SDS011;22475;51.390;7.180;2023-12-20T05:16:13;7.85;;;3.60;;
36449;SDS011;22475;51.390;7.180;2023-12-20T05:18:42;14.93;;;4.50;;
36449;SDS011;22475;51.390;7.180;2023-12-20T05:21:09;7.70;;;3.97;;
36449;SDS011;22475;51.390;7.180;2023-12-20T05:23:36;7.90;;;3.70;;
36449;SDS011;22475;51.390;7.180;2023-12-20T05:26:03;6.30;;;3.10;;
36449;SDS011;22475;51.390;7.180;2023-12-20T05:28:29;8.40;;;3.38;;
36449;SDS011;22475;51.390;7.180;2023-12-20T05:30:57;4.22;;;2.40;;
36449;SDS011;22475;51.390;7.180;2023-12-20T05:33:24;8.45;;;3.13;;
36449;SDS011;22475;51.390;7.180;2023-12-20T05:35:51;15.73;;;3.63;;
36449;SDS011;22475;51.390;7.180;2023-12-20T05:38:18;16.33;;;5.18;;
36449;SDS011;22475;51.390;7.180;2023-12-20T05:40:44;12.10;;;3.38;;
36449;SDS011;22475;51.390;7.180;2023-12-20T05:43:12;15.80;;;5.07;;
36449;SDS011;22475;51.390;7.180;2023-12-20T05:45:38;16.70;;;3.70;;
36449;SDS011;22475;51.390;7.180;2023-12-20T05:48:07;13.73;;;4.15;;
36449;SDS011;22475;51.390;7.180;2023-12-20T05:50:33;11.93;;;3.38;;
36449;SDS011;22475;51.390;7.180;2023-12-20T05:53:01;13.20;;;3.97;;
36449;SDS011;22475;51.390;7.180;2023-12-20T05:55:28;16.42;;;3.67;;
36449;SDS011;22475;51.390;7.180;2023-12-20T05:57:55;10.57;;;3.78;;
36449;SDS011;22475;51.390;7.180;2023-12-20T06:00:22;22.15;;;5.43;;
36449;SDS011;22475;51.390;7.180;2023-12-20T06:02:50;12.02;;;2.55;;
36449;SDS011;22475;51.390;7.180;2023-12-20T06:05:18;16.73;;;3.92;;
36449;SDS011;22475;51.390;7.180;2023-12-20T06:07:45;14.65;;;3.17;;
36449;SDS011;22475;51.390;7.180;2023-12-20T06:10:13;3.30;;;1.83;;
36449;SDS011;22475;51.390;7.180;2023-12-20T06:12:40;26.10;;;4.32;;
36449;SDS011;22475;51.390;7.180;2023-12-20T06:15:07;8.10;;;1.85;;
36449;SDS011;22475;51.390;7.180;2023-12-20T06:17:34;15.35;;;3.65;;
36449;SDS011;22475;51.390;7.180;2023-12-20T06:20:01;12.82;;;2.88;;
36449;SDS011;22475;51.390;7.180;2023-12-20T06:22:33;10.30;;;3.00;;
36449;SDS011;22475;51.390;7.180;2023-12-20T06:25:00;11.98;;;3.47;;
36449;SDS011;22475;51.390;7.180;2023-12-20T06:27:27;21.92;;;3.15;;
36449;SDS011;22475;51.390;7.180;2023-12-20T06:29:55;17.33;;;3.17;;
36449;SDS011;22475;51.390;7.180;2023-12-20T06:32:22;15.02;;;3.40;;
36449;SDS011;22475;51.390;7.180;2023-12-20T06:34:49;16.70;;;3.33;;
36449;SDS011;22475;51.390;7.180;2023-12-20T06:37:16;17.98;;;2.90;;
36449;SDS011;22475;51.390;7.180;2023-12-20T06:39:44;22.95;;;4.22;;
36449;SDS011;22475;51.390;7.180;2023-12-20T06:42:11;5.28;;;2.90;;
36449;SDS011;22475;51.390;7.180;2023-12-20T06:44:38;11.68;;;3.80;;
36449;SDS011;22475;51.390;7.180;2023-12-20T06:47:05;11.10;;;3.17;;
36449;SDS011;22475;51.390;7.180;2023-12-20T06:49:31;17.90;;;3.88;;
36449;SDS011;22475;51.390;7.180;2023-12-20T06:51:58;14.73;;;2.55;;
36449;SDS011;22475;51.390;7.180;2023-12-20T06:54:25;13.80;;;3.45;;
36449;SDS011;22475;51.390;7.180;2023-12-20T06:56:53;14.40;;;3.30;;
36449;SDS011;22475;51.390;7.180;2023-12-20T06:59:20;24.50;;;3.88;;
36449;SDS011;22475;51.390;7.180;2023-12-20T07:01:47;15.35;;;4.00;;
36449;SDS011;22475;51.390;7.180;2023-12-20T07:04:15;18.40;;;3.85;;
36449;SDS011;22475;51.390;7.180;2023-12-20T07:06:45;15.38;;;3.95;;
36449;SDS011;22475;51.390;7.180;2023-12-20T07:09:12;18.40;;;3.92;;
36449;SDS011;22475;51.390;7.180;2023-12-20T07:11:40;15.98;;;4.22;;
36449;SDS011;22475;51.390;7.180;2023-12-20T07:14:08;21.45;;;5.38;;
36449;SDS011;22475;51.390;7.180;2023-12-20T07:16:35;26.88;;;3.30;;
36449;SDS011;22475;51.390;7.180;2023-12-20T07:19:01;14.70;;;2.38;;
36449;SDS011;22475;51.390;7.180;2023-12-20T07:21:28;12.27;;;3.60;;
36449;SDS011;22475;51.390;7.180;2023-12-20T07:23:55;5.22;;;1.67;;
36449;SDS011;22475;51.390;7.180;2023-12-20T07:26:22;13.45;;;2.60;;
36449;SDS011;22475;51.390;7.180;2023-12-20T07:28:49;14.32;;;2.55;;
36449;SDS011;22475;51.390;7.180;2023-12-20T07:31:17;19.83;;;4.55;;
36449;SDS011;22475;51.390;7.180;2023-12-20T07:33:43;8.38;;;2.35;;
36449;SDS011;22475;51.390;7.180;2023-12-20T07:36:10;8.25;;;2.15;;
36449;SDS011;22475;51.390;7.180;2023-12-20T07:38:38;13.32;;;2.33;;
36449;SDS011;22475;51.390;7.180;2023-12-20T07:41:05;6.47;;;1.85;;
36449;SDS011;22475;51.390;7.180;2023-12-20T07:43:31;11.65;;;3.17;;
36449;SDS011;22475;51.390;7.180;2023-12-20T07:46:03;5.15;;;1.88;;
36449;SDS011;22475;51.390;7.180;2023-12-20T07:48:32;5.80;;;2.67;;
36449;SDS011;22475;51.390;7.180;2023-12-20T07:50:59;26.05;;;3.53;;
36449;SDS011;22475;51.390;7.180;2023-12-20T07:53:26;8.85;;;2.83;;
36449;SDS011;22475;51.390;7.180;2023-12-20T07:55:53;16.58;;;3.83;;
36449;SDS011;22475;51.390;7.180;2023-12-20T07:58:20;18.42;;;3.55;;
36449;SDS011;22475;51.390;7.180;2023-12-20T08:00:47;9.05;;;3.15;;
36449;SDS011;22475;51.390;7.180;2023-12-20T08:03:13;15.10;;;3.30;;
36449;SDS011;22475;51.390;7.180;2023-12-20T08:05:42;12.57;;;2.28;;
36449;SDS011;22475;51.390;7.180;2023-12-20T08:08:09;9.38;;;2.60;;
36449;SDS011;22475;51.390;7.180;2023-12-20T08:10:36;13.10;;;3.58;;
36449;SDS011;22475;51.390;7.180;2023-12-20T08:13:02;13.65;;;3.03;;
36449;SDS011;22475;51.390;7.180;2023-12-20T08:15:29;27.67;;;4.22;;
36449;SDS011;22475;51.390;7.180;2023-12-20T08:17:56;17.88;;;2.45;;
36449;SDS011;22475;51.390;7.180;2023-12-20T08:20:23;17.92;;;3.42;;
36449;SDS011;22475;51.390;7.180;2023-12-20T08:22:51;19.48;;;3.00;;
36449;SDS011;22475;51.390;7.180;2023-12-20T08:25:18;11.32;;;2.72;;
36449;SDS011;22475;51.390;7.180;2023-12-20T08:27:44;11.18;;;3.03;;
36449;SDS011;22475;51.390;7.180;2023-12-20T08:30:11;16.77;;;3.97;;
36449;SDS011;22475;51.390;7.180;2023-12-20T08:32:38;22.30;;;2.90;;
36449;SDS011;22475;51.390;7.180;2023-12-20T08:35:05;16.50;;;3.92;;
36449;SDS011;22475;51.390;7.180;2023-12-20T08:37:32;12.55;;;2.83;;
36449;SDS011;22475;51.390;7.180;2023-12-20T08:40:00;7.13;;;2.50;;
36449;SDS011;22475;51.390;7.180;2023-12-20T08:42:27;3.20;;;1.98;;
36449;SDS011;22475;51.390;7.180;2023-12-20T08:44:56;7.45;;;3.10;;
36449;SDS011;22475;51.390;7.180;2023-12-20T08:47:23;11.05;;;3.28;;
36449;SDS011;22475;51.390;7.180;2023-12-20T08:49:50;13.30;;;2.97;;
36449;SDS011;22475;51.390;7.180;2023-12-20T08:54:47;21.50;;;3.65;;
36449;SDS011;22475;51.390;7.180;2023-12-20T08:57:18;11.70;;;3.58;;
36449;SDS011;22475;51.390;7.180;2023-12-20T08:59:46;11.38;;;2.88;;
36449;SDS011;22475;51.390;7.180;2023-12-20T09:02:13;7.93;;;2.90;;
36449;SDS011;22475;51.390;7.180;2023-12-20T09:04:40;10.65;;;2.63;;
36449;SDS011;22475;51.390;7.180;2023-12-20T09:07:07;7.05;;;2.67;;
36449;SDS011;22475;51.390;7.180;2023-12-20T09:09:46;16.70;;;3.78;;
36449;SDS011;22475;51.390;7.180;2023-12-20T09:12:13;20.92;;;6.40;;
36449;SDS011;22475;51.390;7.180;2023-12-20T09:14:41;6.13;;;1.75;;
36449;SDS011;22475;51.390;7.180;2023-12-20T09:17:08;2.75;;;1.42;;
36449;SDS011;22475;51.390;7.180;2023-12-20T09:19:36;1.45;;;1.35;;
36449;SDS011;22475;51.390;7.180;2023-12-20T09:22:03;24.50;;;3.88;;
36449;SDS011;22475;51.390;7.180;2023-12-20T09:24:30;13.95;;;2.40;;
36449;SDS011;22475;51.390;7.180;2023-12-20T09:26:57;22.85;;;3.72;;
36449;SDS011;22475;51.390;7.180;2023-12-20T09:29:23;8.63;;;2.03;;
36449;SDS011;22475;51.390;7.180;2023-12-20T09:31:52;19.95;;;3.80;;
36449;SDS011;22475;51.390;7.180;2023-12-20T09:34:18;10.43;;;2.40;;
36449;SDS011;22475;51.390;7.180;2023-12-20T09:36:46;5.53;;;1.00;;
36449;SDS011;22475;51.390;7.180;2023-12-20T09:39:13;12.77;;;2.35;;
36449;SDS011;22475;51.390;7.180;2023-12-20T09:41:42;23.33;;;3.45;;
36449;SDS011;22475;51.390;7.180;2023-12-20T09:44:12;9.18;;;1.60;;
36449;SDS011;22475;51.390;7.180;2023-12-20T09:46:43;7.32;;;1.00;;
36449;SDS011;22475;51.390;7.180;2023-12-20T09:49:12;13.65;;;2.58;;
36449;SDS011;22475;51.390;7.180;2023-12-20T09:51:40;8.65;;;2.38;;
36449;SDS011;22475;51.390;7.180;2023-12-20T09:54:07;15.98;;;2.13;;
36449;SDS011;22475;51.390;7.180;2023-12-20T09:56:35;14.48;;;3.17;;
36449;SDS011;22475;51.390;7.180;2023-12-20T09:59:03;17.65;;;2.38;;
36449;SDS011;22475;51.390;7.180;2023-12-20T10:01:30;9.88;;;2.50;;
36449;SDS011;22475;51.390;7.180;2023-12-20T10:03:57;4.35;;;1.63;;
36449;SDS011;22475;51.390;7.180;2023-12-20T10:06:28;18.67;;;4.22;;
36449;SDS011;22475;51.390;7.180;2023-12-20T10:08:54;13.52;;;3.17;;
36449;SDS011;22475;51.390;7.180;2023-12-20T10:11:21;13.50;;;3.28;;
36449;SDS011;22475;51.390;7.180;2023-12-20T10:13:48;14.43;;;2.13;;
36449;SDS011;22475;51.390;7.180;2023-12-20T10:16:15;5.25;;;1.88;;
36449;SDS011;22475;51.390;7.180;2023-12-20T10:18:42;16.85;;;2.97;;
36449;SDS011;22475;51.390;7.180;2023-12-20T10:21:09;22.08;;;2.55;;
36449;SDS011;22475;51.390;7.180;2023-12-20T10:23:38;6.47;;;1.92;;
36449;SDS011;22475;51.390;7.180;2023-12-20T10:26:05;9.05;;;2.60;;
36449;SDS011;22475;51.390;7.180;2023-12-20T10:28:33;11.55;;;3.00;;
36449;SDS011;22475;51.390;7.180;2023-12-20T10:31:00;15.40;;;2.53;;
36449;SDS011;22475;51.390;7.180;2023-12-20T10:33:27;12.23;;;2.83;;
36449;SDS011;22475;51.390;7.180;2023-12-20T10:35:55;11.90;;;2.35;;
36449;SDS011;22475;51.390;7.180;2023-12-20T10:38:22;11.00;;;2.67;;
36449;SDS011;22475;51.390;7.180;2023-12-20T10:40:50;22.27;;;3.15;;
36449;SDS011;22475;51.390;7.180;2023-12-20T10:43:20;10.57;;;3.03;;
36449;SDS011;22475;51.390;7.180;2023-12-20T10:45:51;13.32;;;2.42;;
36449;SDS011;22475;51.390;7.180;2023-12-20T10:48:18;10.07;;;3.03;;
36449;SDS011;22475;51.390;7.180;2023-12-20T10:50:46;9.10;;;1.63;;
36449;SDS011;22475;51.390;7.180;2023-12-20T10:53:13;9.77;;;3.30;;
36449;SDS011;22475;51.390;7.180;2023-12-20T10:55:41;13.80;;;2.65;;
36449;SDS011;22475;51.390;7.180;2023-12-20T10:58:10;8.25;;;1.90;;
36449;SDS011;22475;51.390;7.180;2023-12-20T11:00:39;24.17;;;2.83;;
36449;SDS011;22475;51.390;7.180;2023-12-20T11:03:07;9.00;;;1.33;;
36449;SDS011;22475;51.390;7.180;2023-12-20T11:05:36;22.88;;;3.97;;
36449;SDS011;22475;51.390;7.180;2023-12-20T11:08:11;10.18;;;2.72;;
36449;SDS011;22475;51.390;7.180;2023-12-20T11:10:43;5.28;;;1.13;;
36449;SDS011;22475;51.390;7.180;2023-12-20T11:13:20;9.80;;;2.38;;
36449;SDS011;22475;51.390;7.180;2023-12-20T11:15:49;10.70;;;2.95;;
36449;SDS011;22475;51.390;7.180;2023-12-20T11:18:16;15.00;;;2.65;;
36449;SDS011;22475;51.390;7.180;2023-12-20T11:20:43;7.43;;;2.20;;
36449;SDS011;22475;51.390;7.180;2023-12-20T11:23:09;5.40;;;1.80;;
36449;SDS011;22475;51.390;7.180;2023-12-20T11:25:46;15.77;;;4.22;;
36449;SDS011;22475;51.390;7.180;2023-12-20T11:28:14;2.22;;;0.93;;
36449;SDS011;22475;51.390;7.180;2023-12-20T11:30:47;11.20;;;1.92;;
36449;SDS011;22475;51.390;7.180;2023-12-20T11:33:16;7.60;;;1.92;;
36449;SDS011;22475;51.390;7.180;2023-12-20T11:35:48;9.93;;;2.35;;
36449;SDS011;22475;51.390;7.180;2023-12-20T11:38:15;10.48;;;1.95;;
36449;SDS011;22475;51.390;7.180;2023-12-20T11:40:42;10.10;;;3.13;;
36449;SDS011;22475;51.390;7.180;2023-12-20T11:43:09;10.63;;;1.85;;
36449;SDS011;22475;51.390;7.180;2023-12-20T11:45:36;11.70;;;2.30;;
36449;SDS011;22475;51.390;7.180;2023-12-20T11:48:05;9.57;;;2.58;;
36449;SDS011;22475;51.390;7.180;2023-12-20T11:50:33;14.45;;;2.63;;
36449;SDS011;22475;51.390;7.180;2023-12-20T11:53:00;18.75;;;2.85;;
36449;SDS011;22475;51.390;7.180;2023-12-20T11:55:27;9.68;;;2.40;;
36449;SDS011;22475;51.390;7.180;2023-12-20T11:57:53;14.35;;;3.00;;
36449;SDS011;22475;51.390;7.180;2023-12-20T12:00:20;5.10;;;1.83;;
36449;SDS011;22475;51.390;7.180;2023-12-20T12:02:55;7.20;;;3.55;;
36449;SDS011;22475;51.390;7.180;2023-12-20T12:05:24;7.32;;;2.67;;
36449;SDS011;22475;51.390;7.180;2023-12-20T12:07:50;10.65;;;2.05;;
36449;SDS011;22475;51.390;7.180;2023-12-20T12:10:18;12.25;;;2.33;;
36449;SDS011;22475;51.390;7.180;2023-12-20T12:12:45;13.70;;;2.05;;
36449;SDS011;22475;51.390;7.180;2023-12-20T12:15:12;15.38;;;2.45;;
36449;SDS011;22475;51.390;7.180;2023-12-20T12:17:38;7.40;;;1.70;;
36449;SDS011;22475;51.390;7.180;2023-12-20T12:20:06;13.38;;;3.03;;
36449;SDS011;22475;51.390;7.180;2023-12-20T12:22:36;15.70;;;2.10;;
36449;SDS011;22475;51.390;7.180;2023-12-20T12:25:10;8.25;;;1.95;;
36449;SDS011;22475;51.390;7.180;2023-12-20T12:27:39;12.07;;;1.92;;
36449;SDS011;22475;51.390;7.180;2023-12-20T12:30:06;5.53;;;1.98;;
36449;SDS011;22475;51.390;7.180;2023-12-20T12:32:34;9.95;;;2.38;;
36449;SDS011;22475;51.390;7.180;2023-12-20T12:35:02;11.68;;;1.50;;
36449;SDS011;22475;51.390;7.180;2023-12-20T12:37:31;17.75;;;2.45;;
36449;SDS011;22475;51.390;7.180;2023-12-20T12:40:01;12.98;;;3.58;;
36449;SDS011;22475;51.390;7.180;2023-12-20T12:42:31;5.80;;;1.92;;
36449;SDS011;22475;51.390;7.180;2023-12-20T12:44:58;8.00;;;1.45;;
36449;SDS011;22475;51.390;7.180;2023-12-20T12:47:24;10.73;;;1.35;;
36449;SDS011;22475;51.390;7.180;2023-12-20T12:49:51;18.65;;;3.08;;
36449;SDS011;22475;51.390;7.180;2023-12-20T12:52:19;5.13;;;1.73;;
36449;SDS011;22475;51.390;7.180;2023-12-20T12:54:45;18.23;;;2.50;;
36449;SDS011;22475;51.390;7.180;2023-12-20T12:57:14;10.38;;;2.47;;
36449;SDS011;22475;51.390;7.180;2023-12-20T12:59:42;12.80;;;2.60;;
36449;SDS011;22475;51.390;7.180;2023-12-20T13:02:10;18.30;;;2.30;;
36449;SDS011;22475;51.390;7.180;2023-12-20T13:04:38;14.52;;;2.40;;
36449;SDS011;22475;51.390;7.180;2023-12-20T13:07:05;13.55;;;2.45;;
36449;SDS011;22475;51.390;7.180;2023-12-20T13:09:32;12.13;;;1.17;;
36449;SDS011;22475;51.390;7.180;2023-12-20T13:11:59;10.27;;;3.53;;
36449;SDS011;22475;51.390;7.180;2023-12-20T13:14:30;13.98;;;2.70;;
36449;SDS011;22475;51.390;7.180;2023-12-20T13:16:57;10.35;;;2.30;;
36449;SDS011;22475;51.390;7.180;2023-12-20T13:19:24;12.18;;;2.72;;
36449;SDS011;22475;51.390;7.180;2023-12-20T13:21:51;3.88;;;1.45;;
36449;SDS011;22475;51.390;7.180;2023-12-20T13:24:18;15.43;;;4.22;;
36449;SDS011;22475;51.390;7.180;2023-12-20T13:26:44;9.93;;;3.30;;
36449;SDS011;22475;51.390;7.180;2023-12-20T13:29:11;3.10;;;0.85;;
36449;SDS011;22475;51.390;7.180;2023-12-20T13:31:39;15.57;;;2.33;;
36449;SDS011;22475;51.390;7.180;2023-12-20T13:34:06;14.27;;;2.97;;
36449;SDS011;22475;51.390;7.180;2023-12-20T13:36:33;18.60;;;2.47;;
36449;SDS011;22475;51.390;7.180;2023-12-20T13:39:01;9.98;;;2.90;;
36449;SDS011;22475;51.390;7.180;2023-12-20T13:41:29;13.80;;;2.13;;
36449;SDS011;22475;51.390;7.180;2023-12-20T13:43:56;9.88;;;2.22;;
36449;SDS011;22475;51.390;7.180;2023-12-20T13:46:23;5.85;;;1.30;;
36449;SDS011;22475;51.390;7.180;2023-12-20T13:48:51;2.55;;;1.33;;
36449;SDS011;22475;51.390;7.180;2023-12-20T13:51:18;5.55;;;1.90;;
36449;SDS011;22475;51.390;7.180;2023-12-20T13:53:45;11.88;;;1.92;;
36449;SDS011;22475;51.390;7.180;2023-12-20T13:56:13;8.82;;;2.28;;
36449;SDS011;22475;51.390;7.180;2023-12-20T13:58:40;3.80;;;1.90;;
36449;SDS011;22475;51.390;7.180;2023-12-20T14:01:07;3.63;;;1.75;;
36449;SDS011;22475;51.390;7.180;2023-12-20T14:03:35;11.15;;;2.85;;
36449;SDS011;22475;51.390;7.180;2023-12-20T14:06:03;9.40;;;2.55;;
36449;SDS011;22475;51.390;7.180;2023-12-20T14:08:30;7.53;;;1.73;;
36449;SDS011;22475;51.390;7.180;2023-12-20T14:10:57;8.65;;;2.15;;
36449;SDS011;22475;51.390;7.180;2023-12-20T14:13:24;0.80;;;0.80;;
36449;SDS011;22475;51.390;7.180;2023-12-20T14:15:51;9.85;;;1.88;;
36449;SDS011;22475;51.390;7.180;2023-12-20T14:18:19;2.15;;;1.08;;
36449;SDS011;22475;51.390;7.180;2023-12-20T14:20:46;4.07;;;1.45;;
36449;SDS011;22475;51.390;7.180;2023-12-20T14:23:17;8.25;;;1.83;;
36449;SDS011;22475;51.390;7.180;2023-12-20T14:25:43;12.98;;;1.50;;
36449;SDS011;22475;51.390;7.180;2023-12-20T14:28:10;11.00;;;2.33;;
36449;SDS011;22475;51.390;7.180;2023-12-20T14:30:39;12.73;;;2.10;;
36449;SDS011;22475;51.390;7.180;2023-12-20T14:33:05;2.78;;;1.35;;
36449;SDS011;22475;51.390;7.180;2023-12-20T14:35:32;6.38;;;1.70;;
36449;SDS011;22475;51.390;7.180;2023-12-20T14:37:59;4.75;;;1.00;;
36449;SDS011;22475;51.390;7.180;2023-12-20T14:40:27;4.97;;;2.15;;
36449;SDS011;22475;51.390;7.180;2023-12-20T14:42:54;9.60;;;3.13;;
36449;SDS011;22475;51.390;7.180;2023-12-20T14:45:21;12.40;;;2.28;;